Portada
METAR-TAF:

METAR-TAF

Aeropuertos :

Aeropuerto Internacional Esenboğa

Ankara Esenboğa, Turquía

latitud: 40-07N, longitud: 032-59E, altitud: 953 m

Observación

El informe se hizo hace 44 minutos, a las 08:50 UTC
Viento calma
Temperatura 15°C
Humedad 31%
Presión 1016 hPa
Visibilidad 10 km o más
Escasas nubes a una altura de 4000 ft
Cielo nuboso a una altura de 20000 ft

METAR: LTAC 140850Z 00000KT 9999 FEW040 BKN200 15/M02 Q1016 NOSIG RMK RWY21L VRB01KT RWY03L 02003KT 280V090 RWY21R VRB01KT

Hora: 12:34 (09:34 UTC)

Pronóstico

El informe se hizo hace 4 horas y 54 minutos, a las 04:40 UTC
Pronóstico válido del 14 a las 06 UTC al 15 a las 06 UTC
Viento 2 kt con dirección variable
Visibilidad 10 km o más
Nubes dispersas a una altura de 4000 ft
Cielo nuboso a una altura de 10000 ft
Temporalmente
del 14 a las 10 UTC al 14 a las 14 UTC
Viento 12 kt del sur-sureste

TAF: LTAC 140440Z 1406/1506 VRB02KT 9999 SCT040 BKN100 TEMPO 1410/1414 15012KT

Observaciones y pronósticos meteorológicos de más de 4000 aeropuertos (mensajes METAR y TAF).

Los puntos amarillos y rojos representan las estaciones disponibles.

Ponga el ratón en el punto deseado para ver el nombre de la estación.

Haga clic para ver las observaciones y los pronósticos meteorológicos.

Para cambiar el mapa : haga clic en los botones verdes con una cruz de color negro para hacer un zoom, en el botón verde con un guión para alejar o en las flechas verdes para mapas adyacentes.


METAR-TAF: